Time;durP1;ratioP1;P1;durP2;ratioP2;P2;SDS_P1;SDS_P2;PMS_P1;PMS_P2;Temp;Humidity;BMP_temperature;BMP_pressure;BME280_temperature;BME280_humidity;BME280_pressure;Samples;Min_cycle;Max_cycle;Signal;HPM_P1;HPM_P2
2023/01/22 00:02:53;;;;;;;14.60;10.10;;;;;-0.60;96635.00;;;;8310219;28;20204;-73
2023/01/22 00:06:56;;;;;;;11.97;5.97;;;;;-0.70;96640.00;;;;8329014;28;20205;-71
2023/01/22 00:11:02;;;;;;;10.10;6.27;;;;;-0.70;96635.00;;;;8322381;28;20875;-72
2023/01/22 00:15:10;;;;;;;14.27;6.73;;;;;-0.80;96626.00;;;;8313714;28;20256;-72
2023/01/22 00:19:19;;;;;;;10.37;6.00;;;;;-0.80;96630.00;;;;8307180;28;20240;-73
2023/01/22 00:23:35;;;;;;;14.17;6.40;;;;;-0.90;96628.00;;;;8318816;28;20281;-71
2023/01/22 00:27:39;;;;;;;11.20;5.93;;;;;-1.00;96634.00;;;;8315151;28;20202;-71
2023/01/22 00:31:47;;;;;;;13.40;6.43;;;;;-1.00;96634.00;;;;8313686;28;20208;-74
2023/01/22 00:35:50;;;;;;;11.80;5.60;;;;;-1.10;96638.00;;;;8313438;28;20308;-72
2023/01/22 00:39:53;;;;;;;9.43;5.40;;;;;-1.10;96642.00;;;;8318815;28;20262;-72
2023/01/22 00:43:56;;;;;;;10.80;5.93;;;;;-1.20;96639.00;;;;8316945;28;20235;-72
2023/01/22 00:48:00;;;;;;;10.43;5.67;;;;;-1.30;96641.00;;;;8314839;28;20198;-72
2023/01/22 00:52:04;;;;;;;12.63;6.20;;;;;-1.50;96647.00;;;;8309542;28;20237;-74
2023/01/22 00:56:17;;;;;;;11.90;6.73;;;;;-1.60;96645.00;;;;8322193;28;20197;-71
2023/01/22 01:00:21;;;;;;;10.60;6.17;;;;;-1.70;96654.00;;;;8320715;28;20229;-71
2023/01/22 01:04:31;;;;;;;12.10;5.97;;;;;-1.90;96652.00;;;;8312190;28;20205;-71
2023/01/22 01:08:35;;;;;;;13.27;6.27;;;;;-2.10;96646.00;;;;8324142;28;20220;-71
2023/01/22 01:12:39;;;;;;;10.43;5.43;;;;;-2.30;96651.00;;;;8316093;28;20892;-70
2023/01/22 01:16:43;;;;;;;13.13;6.40;;;;;-2.60;96648.00;;;;8315826;28;20259;-73
2023/01/22 01:20:55;;;;;;;12.27;5.73;;;;;-2.80;96651.00;;;;8312916;28;20241;-70
2023/01/22 01:24:57;;;;;;;12.30;6.60;;;;;-2.90;96651.00;;;;8318695;28;20284;-70
2023/01/22 01:29:00;;;;;;;9.27;5.40;;;;;-3.00;96640.00;;;;8317722;28;20225;-71
2023/01/22 01:33:06;;;;;;;12.17;5.93;;;;;-3.00;96654.00;;;;8320896;28;20205;-71
2023/01/22 01:37:11;;;;;;;11.03;5.03;;;;;-3.10;96659.00;;;;8323756;28;20206;-70
2023/01/22 01:41:20;;;;;;;14.43;6.07;;;;;-3.10;96663.00;;;;8324312;28;20261;-70
2023/01/22 01:45:27;;;;;;;13.47;6.23;;;;;-3.00;96662.00;;;;8315497;28;20247;-71
2023/01/22 01:49:34;;;;;;;14.23;7.07;;;;;-2.80;96671.00;;;;8312475;28;20288;-70
2023/01/22 01:53:42;;;;;;;16.97;7.30;;;;;-2.40;96672.00;;;;8314011;28;20238;-70
2023/01/22 01:57:45;;;;;;;17.00;7.90;;;;;-2.00;96673.00;;;;8298193;28;20240;-70
2023/01/22 02:01:52;;;;;;;16.17;7.27;;;;;-1.60;96669.00;;;;8280227;28;20249;-71
2023/01/22 02:05:56;;;;;;;14.70;7.37;;;;;-1.30;96671.00;;;;8321794;28;20201;-71
2023/01/22 02:10:04;;;;;;;15.43;6.97;;;;;-1.10;96672.00;;;;8314271;28;21024;-71
2023/01/22 02:14:11;;;;;;;17.23;7.87;;;;;-0.80;96681.00;;;;8313469;28;20676;-70
2023/01/22 02:18:24;;;;;;;16.30;7.40;;;;;-0.70;96674.00;;;;8309771;28;20197;-70
2023/01/22 02:22:32;;;;;;;13.63;7.63;;;;;-0.50;96687.00;;;;8316519;28;20649;-72
2023/01/22 02:26:38;;;;;;;17.93;7.70;;;;;-0.40;96700.00;;;;8313072;28;20214;-71
2023/01/22 02:30:41;;;;;;;18.70;7.00;;;;;-0.30;96698.00;;;;8314790;28;20586;-72
2023/01/22 02:34:47;;;;;;;16.27;7.77;;;;;-0.20;96697.00;;;;8314431;28;20287;-72
2023/01/22 02:38:52;;;;;;;12.33;6.80;;;;;-0.20;96700.00;;;;8320729;28;20280;-72
2023/01/22 02:42:57;;;;;;;14.67;7.40;;;;;-0.20;96695.00;;;;8316315;28;20260;-71
2023/01/22 02:47:01;;;;;;;19.40;8.17;;;;;-0.20;96695.00;;;;8313585;28;20197;-71
2023/01/22 02:51:07;;;;;;;19.13;8.40;;;;;-0.20;96686.00;;;;8318923;28;20257;-71
2023/01/22 02:55:11;;;;;;;18.27;8.00;;;;;-0.30;96692.00;;;;8308069;28;20196;-70
2023/01/22 02:59:14;;;;;;;17.60;8.63;;;;;-0.30;96691.00;;;;8317106;28;20205;-71
2023/01/22 03:03:20;;;;;;;20.10;9.30;;;;;-0.30;96693.00;;;;8381965;22;20243;-72
2023/01/22 03:07:25;;;;;;;19.50;8.90;;;;;-0.30;96694.00;;;;8401172;28;20206;-71
2023/01/22 03:11:32;;;;;;;20.30;9.33;;;;;-0.20;96696.00;;;;8406782;28;20191;-70
2023/01/22 03:24:24;;;;;;;17.03;7.73;;;;;-0.20;96701.00;;;;8409684;28;20195;-71
2023/01/22 03:28:30;;;;;;;16.87;7.97;;;;;-0.20;96697.00;;;;8397556;28;20203;-72
2023/01/22 03:32:32;;;;;;;18.40;8.23;;;;;-0.10;96699.00;;;;8440638;28;20647;-71
2023/01/22 03:36:37;;;;;;;19.57;9.03;;;;;-0.10;96701.00;;;;8425636;28;20232;-71
2023/01/22 03:40:41;;;;;;;15.83;8.03;;;;;-0.10;96708.00;;;;8436602;28;20219;-71
2023/01/22 03:44:46;;;;;;;21.40;9.33;;;;;0.00;96708.00;;;;8430925;28;20318;-71
2023/01/22 03:48:59;;;;;;;14.97;8.37;;;;;0.00;96705.00;;;;8443697;28;20215;-73
2023/01/22 03:53:03;;;;;;;19.40;9.33;;;;;0.00;96709.00;;;;8432542;28;20195;-73
2023/01/22 03:57:06;;;;;;;19.90;8.67;;;;;0.00;96709.00;;;;8428580;28;20204;-72
2023/01/22 04:01:12;;;;;;;21.07;8.53;;;;;0.00;96711.00;;;;8431878;28;20222;-72
2023/01/22 04:05:15;;;;;;;22.23;9.43;;;;;0.00;96717.00;;;;8441339;28;20224;-73
2023/01/22 04:09:21;;;;;;;17.10;8.00;;;;;0.00;96721.00;;;;8446324;28;20206;-73
2023/01/22 04:13:30;;;;;;;20.00;8.20;;;;;0.00;96724.00;;;;8439442;28;20204;-72
2023/01/22 04:17:38;;;;;;;16.70;8.47;;;;;0.00;96725.00;;;;8439260;28;20244;-74
2023/01/22 04:21:41;;;;;;;15.97;7.67;;;;;0.00;96723.00;;;;8439803;28;20268;-71
2023/01/22 04:25:45;;;;;;;14.83;7.00;;;;;0.10;96733.00;;;;8445423;28;20207;-72
2023/01/22 04:29:48;;;;;;;13.47;7.30;;;;;0.20;96728.00;;;;8444445;28;20564;-71
2023/01/22 04:33:55;;;;;;;14.10;7.07;;;;;0.20;96733.00;;;;8445289;28;20194;-72
2023/01/22 04:37:59;;;;;;;14.00;7.00;;;;;0.30;96739.00;;;;8431773;28;20241;-74
2023/01/22 04:42:07;;;;;;;14.60;7.27;;;;;0.30;96742.00;;;;8425598;28;20255;-73
2023/01/22 04:46:10;;;;;;;14.60;7.17;;;;;0.30;96743.00;;;;8433691;28;20239;-72
2023/01/22 04:50:17;;;;;;;14.03;7.17;;;;;0.40;96745.00;;;;8449471;28;20203;-71
2023/01/22 04:54:21;;;;;;;14.27;7.30;;;;;0.40;96744.00;;;;8448949;28;20528;-72
2023/01/22 04:58:23;;;;;;;15.10;7.43;;;;;0.50;96743.00;;;;8431046;28;20238;-72
2023/01/22 05:02:26;;;;;;;14.00;7.10;;;;;0.50;96747.00;;;;8442244;28;20675;-71
2023/01/22 05:06:36;;;;;;;13.10;6.93;;;;;0.50;96731.00;;;;8443165;28;20191;-71
2023/01/22 05:10:39;;;;;;;16.40;7.57;;;;;0.50;96740.00;;;;8444319;28;20205;-72
2023/01/22 05:14:42;;;;;;;12.20;6.77;;;;;0.50;96743.00;;;;8439216;28;20264;-72
2023/01/22 05:18:45;;;;;;;13.63;6.93;;;;;0.50;96743.00;;;;8438175;28;20254;-71
2023/01/22 05:22:50;;;;;;;14.73;7.00;;;;;0.60;96748.00;;;;8446695;28;20231;-73
2023/01/22 05:26:53;;;;;;;16.20;6.77;;;;;0.60;96752.00;;;;8440810;28;20652;-73
2023/01/22 05:30:57;;;;;;;18.53;7.60;;;;;0.60;96742.00;;;;8437902;28;20217;-73
2023/01/22 05:35:00;;;;;;;17.93;8.30;;;;;0.60;96752.00;;;;8429479;28;20204;-72
2023/01/22 05:39:04;;;;;;;16.60;8.20;;;;;0.60;96753.00;;;;8437712;28;20191;-72
2023/01/22 05:43:09;;;;;;;18.43;8.87;;;;;0.50;96758.00;;;;8445824;28;20253;-72
2023/01/22 05:47:18;;;;;;;17.47;8.43;;;;;0.50;96762.00;;;;8448367;28;21775;-72
2023/01/22 05:51:21;;;;;;;17.53;8.07;;;;;0.50;96770.00;;;;8440661;28;20223;-73
2023/01/22 05:55:25;;;;;;;19.30;8.30;;;;;0.50;96770.00;;;;8438721;28;20957;-72
2023/01/22 05:59:30;;;;;;;16.97;8.10;;;;;0.50;96772.00;;;;8443602;28;20194;-73
2023/01/22 06:03:35;;;;;;;16.97;7.97;;;;;0.60;96774.00;;;;8438285;28;20712;-72
2023/01/22 06:07:38;;;;;;;19.47;8.07;;;;;0.60;96781.00;;;;8416838;28;20207;-73
2023/01/22 06:11:42;;;;;;;16.07;7.70;;;;;0.70;96781.00;;;;8440638;28;20199;-72
2023/01/22 06:15:46;;;;;;;15.37;7.77;;;;;0.70;96779.00;;;;8437578;28;20941;-71
2023/01/22 06:19:49;;;;;;;16.27;8.10;;;;;0.70;96788.00;;;;8442982;28;20643;-74
2023/01/22 06:23:53;;;;;;;17.07;8.13;;;;;0.70;96791.00;;;;8434143;28;20231;-73
2023/01/22 06:28:05;;;;;;;15.73;7.90;;;;;0.70;96788.00;;;;8436499;28;20201;-72
2023/01/22 06:32:08;;;;;;;16.97;7.87;;;;;0.70;96781.00;;;;8442277;28;20191;-72
2023/01/22 06:36:13;;;;;;;16.63;8.53;;;;;0.70;96795.00;;;;8426729;28;20218;-72
2023/01/22 06:40:16;;;;;;;14.80;7.43;;;;;0.70;96791.00;;;;8431445;28;20204;-72
2023/01/22 06:44:22;;;;;;;15.30;8.47;;;;;0.70;96787.00;;;;8440208;28;20262;-72
2023/01/22 06:48:25;;;;;;;16.87;9.03;;;;;0.60;96795.00;;;;8434643;28;20199;-72
2023/01/22 06:52:28;;;;;;;14.57;7.80;;;;;0.60;96805.00;;;;8425570;28;20199;-72
2023/01/22 06:56:31;;;;;;;16.70;8.33;;;;;0.50;96807.00;;;;8437403;28;20195;-72
2023/01/22 07:00:35;;;;;;;19.20;9.13;;;;;0.50;96816.00;;;;8444458;28;20222;-72
2023/01/22 07:04:47;;;;;;;18.37;9.50;;;;;0.60;96823.00;;;;8436156;28;20258;-72
2023/01/22 07:08:50;;;;;;;17.30;8.37;;;;;0.70;96817.00;;;;8438134;28;20191;-74
2023/01/22 07:12:55;;;;;;;18.17;9.00;;;;;0.80;96829.00;;;;8440482;28;20227;-74
2023/01/22 07:16:59;;;;;;;15.47;8.63;;;;;0.80;96832.00;;;;8445576;28;20226;-73
2023/01/22 07:21:04;;;;;;;20.10;10.07;;;;;1.00;96833.00;;;;8446967;28;20687;-73
2023/01/22 07:25:10;;;;;;;18.50;10.27;;;;;1.10;96844.00;;;;8442710;28;20202;-74
2023/01/22 07:29:14;;;;;;;17.73;8.97;;;;;1.20;96844.00;;;;8446266;28;20198;-75
2023/01/22 07:33:18;;;;;;;19.20;10.13;;;;;1.40;96850.00;;;;8427669;28;20643;-73
2023/01/22 07:37:24;;;;;;;17.00;9.53;;;;;1.50;96857.00;;;;8422563;28;20200;-72
2023/01/22 07:41:29;;;;;;;18.00;9.70;;;;;1.60;96860.00;;;;8435054;28;20228;-71
2023/01/22 07:45:35;;;;;;;17.23;8.40;;;;;1.70;96871.00;;;;8438242;28;20661;-72
2023/01/22 07:49:44;;;;;;;18.00;9.60;;;;;1.80;96863.00;;;;8442008;28;20292;-71
2023/01/22 07:53:47;;;;;;;16.03;9.17;;;;;1.80;96864.00;;;;8436430;28;20203;-76
2023/01/22 07:58:02;;;;;;;17.27;9.67;;;;;1.90;96865.00;;;;8438836;28;20633;-76
2023/01/22 08:02:13;;;;;;;17.90;8.77;;;;;2.00;96877.00;;;;8441364;28;20228;-75
2023/01/22 08:06:20;;;;;;;17.67;10.27;;;;;2.10;96879.00;;;;8434597;28;20193;-78
2023/01/22 08:10:25;;;;;;;16.90;9.47;;;;;2.20;96880.00;;;;8442376;28;20221;-75
2023/01/22 08:14:30;;;;;;;19.63;10.50;;;;;2.30;96885.00;;;;8436065;28;20294;-75
2023/01/22 08:18:34;;;;;;;17.60;9.33;;;;;2.20;96893.00;;;;8439238;28;20192;-72
2023/01/22 08:22:38;;;;;;;22.43;10.37;;;;;2.20;96895.00;;;;8443276;28;20233;-72
2023/01/22 08:26:44;;;;;;;16.17;9.33;;;;;2.10;96904.00;;;;8448630;28;20250;-76
2023/01/22 08:30:46;;;;;;;18.33;10.03;;;;;2.10;96914.00;;;;8443557;27;20228;-76
2023/01/22 08:34:53;;;;;;;17.73;10.27;;;;;2.00;96920.00;;;;8448648;27;20193;-76
2023/01/22 08:38:57;;;;;;;15.40;9.27;;;;;2.00;96927.00;;;;8448970;28;20192;-76
2023/01/22 08:43:00;;;;;;;15.40;8.60;;;;;2.00;96936.00;;;;8452027;28;20231;-76
2023/01/22 08:47:09;;;;;;;18.30;8.60;;;;;1.90;96940.00;;;;8443982;28;20301;-77
2023/01/22 08:51:12;;;;;;;17.87;10.53;;;;;2.00;96936.00;;;;8432859;28;20229;-77
2023/01/22 08:55:19;;;;;;;18.03;9.67;;;;;2.10;96930.00;;;;8448276;28;20218;-78
2023/01/22 08:59:28;;;;;;;18.93;10.90;;;;;2.10;96936.00;;;;8422813;28;20862;-77
2023/01/22 09:03:34;;;;;;;21.37;10.50;;;;;2.10;96934.00;;;;8446301;28;20223;-79
2023/01/22 09:07:37;;;;;;;20.60;12.07;;;;;2.10;96941.00;;;;8441373;28;20209;-77
2023/01/22 09:11:45;;;;;;;18.53;9.93;;;;;2.10;96947.00;;;;8429569;28;20239;-73
2023/01/22 09:15:51;;;;;;;18.43;10.23;;;;;2.10;96956.00;;;;8437116;28;20213;-74
2023/01/22 09:19:54;;;;;;;13.87;8.77;;;;;2.10;96945.00;;;;8441459;28;20657;-74
2023/01/22 09:23:57;;;;;;;19.40;10.80;;;;;2.10;96950.00;;;;8442633;27;20225;-74
2023/01/22 09:28:08;;;;;;;18.40;9.97;;;;;2.20;96949.00;;;;8427174;27;20208;-80
2023/01/22 09:32:15;;;;;;;20.40;10.27;;;;;2.20;96953.00;;;;8433958;28;20200;-82
2023/01/22 09:36:45;;;;;;;21.77;10.20;;;;;2.30;96961.00;;;;8430741;28;20231;-82
2023/01/22 09:40:57;;;;;;;20.03;10.73;;;;;2.50;96957.00;;;;8439807;28;20201;-82
2023/01/22 09:45:04;;;;;;;17.23;9.27;;;;;2.60;96968.00;;;;8438387;27;20238;-78
2023/01/22 09:49:19;;;;;;;18.63;9.97;;;;;2.80;96965.00;;;;8447167;27;20198;-81
2023/01/22 09:53:22;;;;;;;17.37;9.20;;;;;2.90;96975.00;;;;8442979;27;20198;-81
2023/01/22 09:57:29;;;;;;;19.07;9.87;;;;;2.90;96970.00;;;;8446964;28;20218;-83
2023/01/22 10:01:37;;;;;;;19.67;10.27;;;;;2.90;96975.00;;;;8442164;28;20232;-85
2023/01/22 10:05:46;;;;;;;15.73;8.33;;;;;3.00;96981.00;;;;8448671;28;20672;-82
2023/01/22 10:09:54;;;;;;;15.57;8.27;;;;;3.00;96987.00;;;;8449280;27;20201;-81
2023/01/22 10:14:00;;;;;;;14.63;8.57;;;;;2.90;96977.00;;;;8448350;28;20196;-79
2023/01/22 10:18:16;;;;;;;13.30;7.70;;;;;3.00;96983.00;;;;8446123;28;20618;-85
2023/01/22 10:22:23;;;;;;;14.53;8.07;;;;;3.10;96971.00;;;;8446314;28;20627;-81
2023/01/22 10:26:38;;;;;;;12.73;7.23;;;;;3.10;96977.00;;;;8450326;28;20631;-83
2023/01/22 10:30:50;;;;;;;13.37;8.10;;;;;3.30;96986.00;;;;8450600;28;20200;-78
2023/01/22 10:35:04;;;;;;;11.10;7.10;;;;;3.40;96978.00;;;;8445620;28;20747;-78
2023/01/22 10:39:11;;;;;;;13.40;7.60;;;;;3.50;96983.00;;;;8450496;27;20216;-80
2023/01/22 10:43:17;;;;;;;10.70;6.33;;;;;3.60;96977.00;;;;8440423;28;21006;-74
2023/01/22 10:47:21;;;;;;;10.23;6.97;;;;;3.60;96982.00;;;;8448243;28;20204;-81
2023/01/22 10:51:31;;;;;;;10.30;6.47;;;;;3.50;96985.00;;;;8443361;28;20258;-80
2023/01/22 10:55:40;;;;;;;11.57;6.83;;;;;3.40;96976.00;;;;8448578;27;20235;-87
2023/01/22 10:59:52;;;;;;;11.20;6.70;;;;;3.50;96987.00;;;;8443611;28;21724;-81
2023/01/22 11:03:55;;;;;;;9.57;6.27;;;;;3.40;96974.00;;;;8422144;28;20229;-76
2023/01/22 11:08:01;;;;;;;11.20;6.73;;;;;3.50;96980.00;;;;8434510;28;20211;-75
2023/01/22 11:12:16;;;;;;;9.10;5.53;;;;;3.30;96968.00;;;;8428077;28;20202;-79
2023/01/22 11:16:24;;;;;;;9.63;6.10;;;;;3.30;96974.00;;;;8446903;28;20234;-80
2023/01/22 11:20:32;;;;;;;10.17;5.63;;;;;3.20;96969.00;;;;8455991;28;20193;-86
2023/01/22 11:24:43;;;;;;;11.83;6.53;;;;;3.30;96972.00;;;;8465527;28;20552;-82
2023/01/22 11:28:58;;;;;;;10.13;6.00;;;;;3.30;96975.00;;;;8467239;28;20198;-84
2023/01/22 11:33:24;;;;;;;11.83;7.53;;;;;3.30;96964.00;;;;8465672;28;20278;-83
2023/01/22 11:37:41;;;;;;;12.87;6.43;;;;;3.30;96970.00;;;;8466572;28;20565;-87
2023/01/22 11:41:57;;;;;;;13.43;6.70;;;;;3.20;96967.00;;;;8464942;28;20630;-85
2023/01/22 11:46:22;;;;;;;11.70;6.60;;;;;3.10;96967.00;;;;8465266;28;20592;-87
2023/01/22 11:50:30;;;;;;;10.93;6.57;;;;;3.10;96959.00;;;;8464294;28;20189;-89
2023/01/22 11:54:49;;;;;;;11.27;6.93;;;;;3.00;96957.00;;;;8464087;28;20636;-89
2023/01/22 11:59:03;;;;;;;11.20;6.47;;;;;3.00;96964.00;;;;8469370;28;20202;-90
2023/01/22 12:03:44;;;;;;;10.57;6.83;;;;;2.90;96962.00;;;;8453938;28;20590;-86
2023/01/22 12:08:07;;;;;;;14.47;7.03;;;;;2.90;96965.00;;;;8451548;28;20532;-86
2023/01/22 12:12:21;;;;;;;9.43;6.60;;;;;2.90;96961.00;;;;8471831;28;20211;-76
2023/01/22 12:16:30;;;;;;;12.93;6.53;;;;;2.80;96965.00;;;;8465254;28;20194;-76
2023/01/22 12:20:52;;;;;;;11.67;6.83;;;;;2.70;96960.00;;;;8469507;28;20188;-76
2023/01/22 12:25:03;;;;;;;10.47;6.77;;;;;2.90;96965.00;;;;8470800;28;20576;-82
2023/01/22 12:29:15;;;;;;;13.53;7.67;;;;;2.80;96960.00;;;;8472536;28;20199;-81
2023/01/22 12:33:22;;;;;;;14.37;8.73;;;;;2.90;96960.00;;;;8452307;28;20194;-79
2023/01/22 12:37:32;;;;;;;10.50;6.97;;;;;3.10;96951.00;;;;8470426;28;20192;-75
2023/01/22 12:41:44;;;;;;;10.93;6.87;;;;;3.10;96954.00;;;;8468344;28;20200;-87
2023/01/22 12:46:01;;;;;;;10.90;6.83;;;;;3.10;96949.00;;;;8468877;28;20222;-85
2023/01/22 12:50:16;;;;;;;12.07;7.33;;;;;3.00;96955.00;;;;8470186;28;20205;-91
2023/01/22 12:54:28;;;;;;;11.93;7.40;;;;;2.80;96947.00;;;;8469448;28;20201;-86
2023/01/22 12:58:34;;;;;;;13.57;7.37;;;;;2.80;96949.00;;;;8470581;28;20196;-83
2023/01/22 13:02:39;;;;;;;11.93;7.70;;;;;2.80;96952.00;;;;8469521;28;20230;-83
2023/01/22 13:06:47;;;;;;;10.90;7.37;;;;;2.80;96955.00;;;;8469385;28;20257;-83
2023/01/22 13:10:57;;;;;;;13.00;8.00;;;;;2.90;96957.00;;;;8451712;28;20184;-79
2023/01/22 13:15:01;;;;;;;15.43;7.83;;;;;2.90;96959.00;;;;8469270;28;20202;-76
2023/01/22 13:19:19;;;;;;;13.10;7.80;;;;;2.80;96960.00;;;;8469504;28;20199;-76
2023/01/22 13:23:24;;;;;;;11.67;7.20;;;;;2.70;96963.00;;;;8469462;28;20594;-74
2023/01/22 13:27:35;;;;;;;54.23;20.33;;;;;2.70;96958.00;;;;8470168;28;20584;-74
2023/01/22 13:31:40;;;;;;;16.30;8.77;;;;;2.70;96971.00;;;;8466319;28;20202;-73
2023/01/22 13:35:46;;;;;;;18.53;10.30;;;;;2.80;96976.00;;;;8468196;28;20197;-74
2023/01/22 13:39:54;;;;;;;18.57;10.20;;;;;2.90;96978.00;;;;8451384;28;20195;-76
2023/01/22 13:44:12;;;;;;;16.63;9.20;;;;;2.80;96977.00;;;;8464676;28;20224;-78
2023/01/22 13:48:18;;;;;;;15.43;8.70;;;;;2.80;96983.00;;;;8444446;28;20188;-75
2023/01/22 13:52:22;;;;;;;16.83;9.80;;;;;2.80;96968.00;;;;8450288;28;20202;-76
2023/01/22 13:56:30;;;;;;;17.13;9.00;;;;;2.80;96975.00;;;;8468195;28;20202;-76
2023/01/22 14:00:34;;;;;;;15.33;9.27;;;;;2.80;96991.00;;;;8465293;28;20205;-76
2023/01/22 14:04:40;;;;;;;18.70;10.47;;;;;3.00;96988.00;;;;8466592;28;20279;-76
2023/01/22 14:08:48;;;;;;;20.70;9.60;;;;;3.20;96992.00;;;;8467925;28;20198;-76
2023/01/22 14:13:05;;;;;;;18.40;9.43;;;;;3.20;96993.00;;;;8467055;28;20312;-75
2023/01/22 14:17:25;;;;;;;15.47;8.50;;;;;3.20;96993.00;;;;8463548;28;20213;-75
2023/01/22 14:21:29;;;;;;;18.70;9.47;;;;;3.30;97004.00;;;;8466290;28;20190;-75
2023/01/22 14:25:36;;;;;;;16.47;9.10;;;;;3.30;97005.00;;;;8466845;28;20225;-75
2023/01/22 14:29:44;;;;;;;17.07;9.40;;;;;3.20;97003.00;;;;8466820;28;20226;-75
2023/01/22 14:33:46;;;;;;;16.87;9.23;;;;;3.20;97010.00;;;;8444196;28;20587;-76
2023/01/22 14:37:52;;;;;;;19.03;9.47;;;;;3.10;97016.00;;;;8466840;28;20201;-75
2023/01/22 14:41:55;;;;;;;18.37;10.00;;;;;3.00;97013.00;;;;8467074;28;20198;-74
2023/01/22 14:46:06;;;;;;;24.23;11.20;;;;;2.90;97018.00;;;;8465963;28;20227;-75
2023/01/22 14:50:12;;;;;;;17.20;10.53;;;;;2.80;97023.00;;;;8466591;28;20246;-76
2023/01/22 14:54:14;;;;;;;21.67;10.43;;;;;2.70;97025.00;;;;8466922;28;20536;-76
2023/01/22 14:58:18;;;;;;;18.30;8.83;;;;;2.70;97029.00;;;;8466112;28;20186;-77
2023/01/22 15:02:22;;;;;;;18.83;9.97;;;;;2.50;97037.00;;;;8466492;28;20685;-80
2023/01/22 15:06:26;;;;;;;15.53;8.47;;;;;2.50;97042.00;;;;8465495;28;20221;-81
2023/01/22 15:10:33;;;;;;;19.53;9.70;;;;;2.50;97036.00;;;;8460879;28;20215;-81
2023/01/22 15:14:36;;;;;;;18.43;10.63;;;;;2.40;97033.00;;;;8463864;28;20199;-81
2023/01/22 15:18:41;;;;;;;19.07;9.90;;;;;2.30;97039.00;;;;8446935;28;20191;-81
2023/01/22 15:22:47;;;;;;;18.50;9.90;;;;;2.20;97044.00;;;;8465329;28;20209;-82
2023/01/22 15:26:49;;;;;;;18.23;9.20;;;;;2.20;97058.00;;;;8465013;28;20567;-81
2023/01/22 15:30:55;;;;;;;21.90;9.60;;;;;2.10;97051.00;;;;8465711;28;20453;-82
2023/01/22 15:34:59;;;;;;;17.83;9.40;;;;;2.10;97059.00;;;;8465333;28;20180;-82
2023/01/22 15:39:05;;;;;;;21.47;9.80;;;;;2.10;97067.00;;;;8462877;28;20532;-82
2023/01/22 15:43:11;;;;;;;21.93;10.67;;;;;2.10;97057.00;;;;8460142;28;20650;-80
2023/01/22 15:47:14;;;;;;;17.83;9.93;;;;;2.10;97062.00;;;;8460001;28;20226;-81
2023/01/22 15:51:21;;;;;;;22.70;10.93;;;;;2.10;97070.00;;;;8464585;28;20289;-80
2023/01/22 15:55:26;;;;;;;20.63;10.07;;;;;2.20;97068.00;;;;8464551;28;20201;-79
2023/01/22 15:59:30;;;;;;;24.87;11.00;;;;;2.20;97069.00;;;;8465609;28;20197;-77
2023/01/22 16:03:38;;;;;;;27.60;10.97;;;;;2.20;97077.00;;;;8464606;28;20226;-77
2023/01/22 16:07:43;;;;;;;26.93;12.53;;;;;2.10;97076.00;;;;8464636;28;20247;-78
2023/01/22 16:11:46;;;;;;;30.27;12.13;;;;;2.10;97073.00;;;;8446089;28;20196;-77
2023/01/22 16:15:57;;;;;;;31.47;12.33;;;;;2.10;97075.00;;;;8464561;28;20193;-78
2023/01/22 16:19:59;;;;;;;26.20;12.70;;;;;2.20;97075.00;;;;8463436;28;20180;-78
2023/01/22 16:24:04;;;;;;;20.97;9.77;;;;;2.10;97080.00;;;;8464898;28;20196;-78
2023/01/22 16:28:09;;;;;;;20.13;8.87;;;;;2.00;97084.00;;;;8460579;28;20292;-77
2023/01/22 16:32:13;;;;;;;16.07;8.60;;;;;2.00;97094.00;;;;8463192;28;20235;-78
2023/01/22 16:36:18;;;;;;;22.57;9.30;;;;;2.00;97093.00;;;;8463408;28;20188;-77
2023/01/22 16:40:23;;;;;;;24.93;9.53;;;;;1.90;97098.00;;;;8463471;28;20346;-78
2023/01/22 16:44:30;;;;;;;22.47;9.83;;;;;1.90;97096.00;;;;8450085;28;20200;-77
2023/01/22 16:48:36;;;;;;;22.47;9.70;;;;;1.90;97099.00;;;;8470326;28;20543;-79
2023/01/22 16:52:42;;;;;;;28.00;9.90;;;;;1.90;97102.00;;;;8469655;28;20228;-78
2023/01/22 16:56:48;;;;;;;25.37;11.17;;;;;1.90;97108.00;;;;8470829;28;20519;-79
2023/01/22 17:00:53;;;;;;;30.80;12.53;;;;;1.80;97106.00;;;;8460229;28;20614;-78
2023/01/22 17:05:00;;;;;;;26.57;11.00;;;;;1.80;97110.00;;;;8467907;28;20653;-75
2023/01/22 17:09:09;;;;;;;21.03;10.47;;;;;1.80;97119.00;;;;8467539;28;20183;-80
2023/01/22 17:13:13;;;;;;;17.53;7.43;;;;;1.80;97109.00;;;;8464357;28;20189;-77
2023/01/22 17:17:16;;;;;;;22.23;9.13;;;;;1.80;97118.00;;;;8468260;28;20203;-78
2023/01/22 17:21:19;;;;;;;24.63;11.00;;;;;1.80;97112.00;;;;8469274;28;20191;-78
2023/01/22 17:25:23;;;;;;;15.67;7.70;;;;;1.80;97123.00;;;;8469527;28;20215;-79
2023/01/22 17:29:35;;;;;;;18.83;8.87;;;;;1.80;97119.00;;;;8468903;28;20197;-78
2023/01/22 17:33:38;;;;;;;15.47;7.77;;;;;1.80;97127.00;;;;8468308;28;20192;-77
2023/01/22 17:37:41;;;;;;;19.97;8.70;;;;;1.70;97137.00;;;;8469147;28;20192;-78
2023/01/22 17:41:45;;;;;;;21.20;8.90;;;;;1.70;97134.00;;;;8468820;28;20191;-77
2023/01/22 17:45:52;;;;;;;19.73;9.40;;;;;1.70;97138.00;;;;8451538;28;20222;-75
2023/01/22 17:49:58;;;;;;;22.87;10.40;;;;;1.70;97142.00;;;;8449839;28;20193;-75
2023/01/22 17:54:05;;;;;;;25.23;10.43;;;;;1.70;97141.00;;;;8465771;28;20203;-75
2023/01/22 17:58:09;;;;;;;24.03;9.53;;;;;1.70;97149.00;;;;8466358;28;20192;-75
2023/01/22 18:02:14;;;;;;;18.60;8.80;;;;;1.70;97164.00;;;;8468133;28;20232;-75
2023/01/22 18:06:18;;;;;;;29.07;9.23;;;;;1.80;97158.00;;;;8460006;28;20229;-76
2023/01/22 18:10:23;;;;;;;24.73;9.37;;;;;1.80;97165.00;;;;8468058;28;20215;-75
2023/01/22 18:14:29;;;;;;;17.30;8.70;;;;;1.80;97164.00;;;;8467326;28;20607;-74
2023/01/22 18:18:37;;;;;;;21.40;8.40;;;;;1.80;97162.00;;;;8462473;28;20627;-74
2023/01/22 18:22:40;;;;;;;19.73;8.47;;;;;1.90;97156.00;;;;8467732;28;20188;-73
2023/01/22 18:26:55;;;;;;;21.47;8.87;;;;;1.90;97149.00;;;;8466847;28;20219;-75
2023/01/22 18:31:04;;;;;;;22.97;8.70;;;;;1.90;97168.00;;;;8467757;28;20590;-74
2023/01/22 18:35:10;;;;;;;19.03;8.50;;;;;1.80;97169.00;;;;8467085;28;20194;-74
2023/01/22 18:39:15;;;;;;;21.73;9.97;;;;;1.80;97167.00;;;;8465254;28;20205;-74
2023/01/22 18:43:18;;;;;;;23.73;10.30;;;;;1.80;97173.00;;;;8465518;28;20193;-74
2023/01/22 18:47:21;;;;;;;41.80;15.40;;;;;1.80;97176.00;;;;8466034;28;20221;-74
2023/01/22 18:51:27;;;;;;;23.03;10.03;;;;;1.80;97177.00;;;;8466828;28;20601;-74
2023/01/22 18:55:31;;;;;;;27.87;10.53;;;;;1.80;97177.00;;;;8465897;28;20292;-74
2023/01/22 18:59:34;;;;;;;25.70;10.87;;;;;1.80;97178.00;;;;8466117;28;20192;-74
2023/01/22 19:03:37;;;;;;;28.30;10.87;;;;;1.80;97178.00;;;;8460025;28;20227;-74
2023/01/22 19:07:42;;;;;;;28.23;10.80;;;;;1.80;97180.00;;;;8464343;28;20219;-74
2023/01/22 19:11:47;;;;;;;28.30;12.80;;;;;1.80;97180.00;;;;8465753;28;20195;-74
2023/01/22 19:15:54;;;;;;;29.33;12.53;;;;;1.80;97182.00;;;;8465547;28;20197;-73
2023/01/22 19:20:06;;;;;;;34.83;12.63;;;;;1.80;97190.00;;;;8465550;28;20214;-74
2023/01/22 19:24:10;;;;;;;29.53;11.63;;;;;1.80;97190.00;;;;8464541;28;20194;-73
2023/01/22 19:28:15;;;;;;;25.57;11.30;;;;;1.80;97191.00;;;;8464577;28;20218;-72
2023/01/22 19:32:26;;;;;;;33.27;15.43;;;;;1.80;97201.00;;;;8463064;28;20289;-74
2023/01/22 19:36:31;;;;;;;26.40;10.63;;;;;1.80;97200.00;;;;8465248;28;20193;-74
2023/01/22 19:40:54;;;;;;;24.93;10.67;;;;;1.80;97198.00;;;;8463727;28;20186;-74
2023/01/22 19:44:57;;;;;;;57.13;20.10;;;;;1.80;97209.00;;;;8461015;28;20198;-74
2023/01/22 19:49:01;;;;;;;25.60;11.97;;;;;1.80;97213.00;;;;8462746;28;20219;-73
2023/01/22 19:53:04;;;;;;;24.27;10.63;;;;;1.70;97210.00;;;;8464801;28;20249;-74
2023/01/22 19:57:11;;;;;;;22.33;10.80;;;;;1.70;97211.00;;;;8464651;28;20190;-76
2023/01/22 20:01:18;;;;;;;27.33;11.43;;;;;1.70;97207.00;;;;8464954;28;20175;-76
2023/01/22 20:05:24;;;;;;;26.93;10.50;;;;;1.70;97222.00;;;;8459031;28;20219;-76
2023/01/22 20:09:28;;;;;;;30.07;12.20;;;;;1.70;97224.00;;;;8462372;28;20655;-76
2023/01/22 20:13:36;;;;;;;32.63;13.70;;;;;1.70;97227.00;;;;8464595;28;20203;-76
2023/01/22 20:17:39;;;;;;;32.67;12.60;;;;;1.70;97232.00;;;;8460591;28;20196;-76
2023/01/22 20:21:45;;;;;;;34.27;13.27;;;;;1.70;97232.00;;;;8469028;28;20191;-76
2023/01/22 20:25:48;;;;;;;41.90;14.40;;;;;1.70;97245.00;;;;8467892;28;20227;-77
2023/01/22 20:29:53;;;;;;;40.77;14.93;;;;;1.70;97246.00;;;;8471404;28;20621;-77
2023/01/22 20:34:00;;;;;;;45.77;16.27;;;;;1.70;97245.00;;;;8470748;28;20192;-76
2023/01/22 20:38:05;;;;;;;37.83;15.63;;;;;1.70;97257.00;;;;8470627;28;20282;-76